sensor_id;sensor_type;location;lat;lon;timestamp;temperature;humidity
13652;DHT22;6899;51.546;6.912;2024-03-17T00:01:52;3.80;99.90
13652;DHT22;6899;51.546;6.912;2024-03-17T00:04:19;3.80;99.90
13652;DHT22;6899;51.546;6.912;2024-03-17T00:06:46;3.80;99.90
13652;DHT22;6899;51.546;6.912;2024-03-17T00:09:13;3.70;99.90
13652;DHT22;6899;51.546;6.912;2024-03-17T00:11:39;3.70;99.90
13652;DHT22;6899;51.546;6.912;2024-03-17T00:14:06;3.60;99.90
13652;DHT22;6899;51.546;6.912;2024-03-17T00:16:32;3.60;99.90
13652;DHT22;6899;51.546;6.912;2024-03-17T00:18:59;3.60;99.90
13652;DHT22;6899;51.546;6.912;2024-03-17T00:21:24;3.40;99.90
13652;DHT22;6899;51.546;6.912;2024-03-17T00:23:53;3.40;99.90
13652;DHT22;6899;51.546;6.912;2024-03-17T00:26:19;3.40;99.90
13652;DHT22;6899;51.546;6.912;2024-03-17T00:28:46;3.40;99.90
13652;DHT22;6899;51.546;6.912;2024-03-17T00:31:13;3.40;99.90
13652;DHT22;6899;51.546;6.912;2024-03-17T00:33:40;3.30;99.90
13652;DHT22;6899;51.546;6.912;2024-03-17T00:36:07;3.40;99.90
13652;DHT22;6899;51.546;6.912;2024-03-17T00:38:34;3.30;99.90
13652;DHT22;6899;51.546;6.912;2024-03-17T00:41:02;3.20;99.90
13652;DHT22;6899;51.546;6.912;2024-03-17T00:43:29;2.90;99.90
13652;DHT22;6899;51.546;6.912;2024-03-17T00:45:55;2.80;99.90
13652;DHT22;6899;51.546;6.912;2024-03-17T00:48:22;2.70;99.90
13652;DHT22;6899;51.546;6.912;2024-03-17T00:50:55;2.60;99.90
13652;DHT22;6899;51.546;6.912;2024-03-17T00:53:21;2.80;99.90
13652;DHT22;6899;51.546;6.912;2024-03-17T00:55:51;2.80;99.90
13652;DHT22;6899;51.546;6.912;2024-03-17T00:58:20;2.90;99.90
13652;DHT22;6899;51.546;6.912;2024-03-17T01:00:46;3.00;99.90
13652;DHT22;6899;51.546;6.912;2024-03-17T01:03:14;2.80;99.90
13652;DHT22;6899;51.546;6.912;2024-03-17T01:05:40;2.80;99.90
13652;DHT22;6899;51.546;6.912;2024-03-17T01:08:08;2.90;99.90
13652;DHT22;6899;51.546;6.912;2024-03-17T01:10:37;2.90;99.90
13652;DHT22;6899;51.546;6.912;2024-03-17T01:13:05;2.90;99.90
13652;DHT22;6899;51.546;6.912;2024-03-17T01:15:34;2.90;99.90
13652;DHT22;6899;51.546;6.912;2024-03-17T01:18:01;2.80;99.90
13652;DHT22;6899;51.546;6.912;2024-03-17T01:20:27;2.70;99.90
13652;DHT22;6899;51.546;6.912;2024-03-17T01:22:53;2.70;99.90
13652;DHT22;6899;51.546;6.912;2024-03-17T01:25:19;2.70;99.90
13652;DHT22;6899;51.546;6.912;2024-03-17T01:27:46;2.70;99.90
13652;DHT22;6899;51.546;6.912;2024-03-17T01:30:12;2.70;99.90
13652;DHT22;6899;51.546;6.912;2024-03-17T01:32:41;2.60;99.90
13652;DHT22;6899;51.546;6.912;2024-03-17T01:35:07;2.60;99.90
13652;DHT22;6899;51.546;6.912;2024-03-17T01:37:34;2.70;99.90
13652;DHT22;6899;51.546;6.912;2024-03-17T01:40:00;2.60;99.90
13652;DHT22;6899;51.546;6.912;2024-03-17T01:42:27;2.70;99.90
13652;DHT22;6899;51.546;6.912;2024-03-17T01:44:54;2.70;99.90
13652;DHT22;6899;51.546;6.912;2024-03-17T01:47:21;2.60;99.90
13652;DHT22;6899;51.546;6.912;2024-03-17T01:49:49;2.60;99.90
13652;DHT22;6899;51.546;6.912;2024-03-17T01:52:16;2.60;99.90
13652;DHT22;6899;51.546;6.912;2024-03-17T01:54:43;2.50;99.90
13652;DHT22;6899;51.546;6.912;2024-03-17T01:57:11;2.40;99.90
13652;DHT22;6899;51.546;6.912;2024-03-17T01:59:37;2.50;99.90
13652;DHT22;6899;51.546;6.912;2024-03-17T02:02:05;2.50;99.90
13652;DHT22;6899;51.546;6.912;2024-03-17T02:04:31;2.50;99.90
13652;DHT22;6899;51.546;6.912;2024-03-17T02:07:01;2.40;99.90
13652;DHT22;6899;51.546;6.912;2024-03-17T02:09:27;2.50;99.90
13652;DHT22;6899;51.546;6.912;2024-03-17T02:11:54;2.40;99.90
13652;DHT22;6899;51.546;6.912;2024-03-17T02:14:20;2.30;99.90
13652;DHT22;6899;51.546;6.912;2024-03-17T02:16:47;2.30;99.90
13652;DHT22;6899;51.546;6.912;2024-03-17T02:19:12;2.30;99.90
13652;DHT22;6899;51.546;6.912;2024-03-17T02:21:39;2.30;99.90
13652;DHT22;6899;51.546;6.912;2024-03-17T02:24:08;2.40;99.90
13652;DHT22;6899;51.546;6.912;2024-03-17T02:26:34;2.40;99.90
13652;DHT22;6899;51.546;6.912;2024-03-17T02:29:01;2.30;99.90
13652;DHT22;6899;51.546;6.912;2024-03-17T02:31:27;2.10;99.90
13652;DHT22;6899;51.546;6.912;2024-03-17T02:33:53;1.90;99.90
13652;DHT22;6899;51.546;6.912;2024-03-17T02:36:20;1.80;99.90
13652;DHT22;6899;51.546;6.912;2024-03-17T02:38:46;1.90;99.90
13652;DHT22;6899;51.546;6.912;2024-03-17T02:41:32;2.10;99.90
13652;DHT22;6899;51.546;6.912;2024-03-17T02:43:58;2.20;99.90
13652;DHT22;6899;51.546;6.912;2024-03-17T02:46:26;2.10;99.90
13652;DHT22;6899;51.546;6.912;2024-03-17T02:48:53;2.20;99.90
13652;DHT22;6899;51.546;6.912;2024-03-17T02:51:21;2.10;99.90
13652;DHT22;6899;51.546;6.912;2024-03-17T02:53:50;2.10;99.90
13652;DHT22;6899;51.546;6.912;2024-03-17T02:56:17;2.10;99.90
13652;DHT22;6899;51.546;6.912;2024-03-17T02:58:47;2.00;99.90
13652;DHT22;6899;51.546;6.912;2024-03-17T03:01:14;2.10;99.90
13652;DHT22;6899;51.546;6.912;2024-03-17T03:03:42;2.10;99.90
13652;DHT22;6899;51.546;6.912;2024-03-17T03:06:08;2.00;99.90
13652;DHT22;6899;51.546;6.912;2024-03-17T03:08:37;2.00;99.90
13652;DHT22;6899;51.546;6.912;2024-03-17T03:11:06;2.00;99.90
13652;DHT22;6899;51.546;6.912;2024-03-17T03:13:36;2.00;99.90
13652;DHT22;6899;51.546;6.912;2024-03-17T03:16:06;2.00;99.90
13652;DHT22;6899;51.546;6.912;2024-03-17T03:18:33;2.00;99.90
13652;DHT22;6899;51.546;6.912;2024-03-17T03:21:00;2.00;99.90
13652;DHT22;6899;51.546;6.912;2024-03-17T03:23:27;2.00;99.90
13652;DHT22;6899;51.546;6.912;2024-03-17T03:25:57;2.00;99.90
13652;DHT22;6899;51.546;6.912;2024-03-17T03:28:24;2.10;99.90
13652;DHT22;6899;51.546;6.912;2024-03-17T03:30:50;1.90;99.90
13652;DHT22;6899;51.546;6.912;2024-03-17T03:33:19;1.90;99.90
13652;DHT22;6899;51.546;6.912;2024-03-17T03:35:46;1.90;99.90
13652;DHT22;6899;51.546;6.912;2024-03-17T03:38:12;1.90;99.90
13652;DHT22;6899;51.546;6.912;2024-03-17T03:40:39;1.90;99.90
13652;DHT22;6899;51.546;6.912;2024-03-17T03:43:06;2.10;99.90
13652;DHT22;6899;51.546;6.912;2024-03-17T03:45:33;1.90;99.90
13652;DHT22;6899;51.546;6.912;2024-03-17T03:48:00;1.90;99.90
13652;DHT22;6899;51.546;6.912;2024-03-17T03:50:30;1.90;99.90
13652;DHT22;6899;51.546;6.912;2024-03-17T03:52:57;1.90;99.90
13652;DHT22;6899;51.546;6.912;2024-03-17T03:55:24;1.90;99.90
13652;DHT22;6899;51.546;6.912;2024-03-17T03:57:51;1.90;99.90
13652;DHT22;6899;51.546;6.912;2024-03-17T04:00:19;1.90;99.90
13652;DHT22;6899;51.546;6.912;2024-03-17T04:02:48;1.90;99.90
13652;DHT22;6899;51.546;6.912;2024-03-17T04:05:15;1.90;99.90
13652;DHT22;6899;51.546;6.912;2024-03-17T04:07:45;2.00;99.90
13652;DHT22;6899;51.546;6.912;2024-03-17T04:10:13;2.10;99.90
13652;DHT22;6899;51.546;6.912;2024-03-17T04:12:40;2.20;99.90
13652;DHT22;6899;51.546;6.912;2024-03-17T04:15:08;2.30;99.90
13652;DHT22;6899;51.546;6.912;2024-03-17T04:17:36;2.40;99.90
13652;DHT22;6899;51.546;6.912;2024-03-17T04:20:04;2.50;99.90
13652;DHT22;6899;51.546;6.912;2024-03-17T04:22:33;2.50;99.90
13652;DHT22;6899;51.546;6.912;2024-03-17T04:25:02;2.60;99.90
13652;DHT22;6899;51.546;6.912;2024-03-17T04:27:29;2.60;99.90
13652;DHT22;6899;51.546;6.912;2024-03-17T04:29:58;2.60;99.90
13652;DHT22;6899;51.546;6.912;2024-03-17T04:32:25;2.50;99.90
13652;DHT22;6899;51.546;6.912;2024-03-17T04:34:53;2.60;99.90
13652;DHT22;6899;51.546;6.912;2024-03-17T04:37:20;2.60;99.90
13652;DHT22;6899;51.546;6.912;2024-03-17T04:39:48;2.60;99.90
13652;DHT22;6899;51.546;6.912;2024-03-17T04:42:16;2.70;99.90
13652;DHT22;6899;51.546;6.912;2024-03-17T04:44:45;2.60;99.90
13652;DHT22;6899;51.546;6.912;2024-03-17T04:47:12;2.50;99.90
13652;DHT22;6899;51.546;6.912;2024-03-17T04:49:40;2.50;99.90
13652;DHT22;6899;51.546;6.912;2024-03-17T04:52:08;2.40;99.90
13652;DHT22;6899;51.546;6.912;2024-03-17T04:54:36;2.40;99.90
13652;DHT22;6899;51.546;6.912;2024-03-17T04:57:03;2.30;99.90
13652;DHT22;6899;51.546;6.912;2024-03-17T04:59:34;2.20;99.90
13652;DHT22;6899;51.546;6.912;2024-03-17T05:02:01;2.20;99.90
13652;DHT22;6899;51.546;6.912;2024-03-17T05:04:28;2.10;99.90
13652;DHT22;6899;51.546;6.912;2024-03-17T05:06:56;2.10;99.90
13652;DHT22;6899;51.546;6.912;2024-03-17T05:09:22;2.00;99.90
13652;DHT22;6899;51.546;6.912;2024-03-17T05:11:50;1.90;99.90
13652;DHT22;6899;51.546;6.912;2024-03-17T05:14:18;1.90;99.90
13652;DHT22;6899;51.546;6.912;2024-03-17T05:16:48;1.90;99.90
13652;DHT22;6899;51.546;6.912;2024-03-17T05:19:15;1.90;99.90
13652;DHT22;6899;51.546;6.912;2024-03-17T05:21:43;2.00;99.90
13652;DHT22;6899;51.546;6.912;2024-03-17T05:24:10;2.10;99.90
13652;DHT22;6899;51.546;6.912;2024-03-17T05:26:37;2.20;99.90
13652;DHT22;6899;51.546;6.912;2024-03-17T05:29:04;2.30;99.90
13652;DHT22;6899;51.546;6.912;2024-03-17T05:31:31;2.30;99.90
13652;DHT22;6899;51.546;6.912;2024-03-17T05:33:59;2.40;99.90
13652;DHT22;6899;51.546;6.912;2024-03-17T05:36:26;2.40;99.90
13652;DHT22;6899;51.546;6.912;2024-03-17T05:38:53;2.40;99.90
13652;DHT22;6899;51.546;6.912;2024-03-17T05:41:19;2.40;99.90
13652;DHT22;6899;51.546;6.912;2024-03-17T05:43:46;2.40;99.90
13652;DHT22;6899;51.546;6.912;2024-03-17T05:46:14;2.40;99.90
13652;DHT22;6899;51.546;6.912;2024-03-17T05:48:41;2.50;99.90
13652;DHT22;6899;51.546;6.912;2024-03-17T05:51:11;2.60;99.90
13652;DHT22;6899;51.546;6.912;2024-03-17T05:53:38;2.60;99.90
13652;DHT22;6899;51.546;6.912;2024-03-17T05:56:06;2.60;99.90
13652;DHT22;6899;51.546;6.912;2024-03-17T05:58:35;2.60;99.90
13652;DHT22;6899;51.546;6.912;2024-03-17T06:01:03;2.50;99.90
13652;DHT22;6899;51.546;6.912;2024-03-17T06:03:30;2.60;99.90
13652;DHT22;6899;51.546;6.912;2024-03-17T06:05:58;2.60;99.90
13652;DHT22;6899;51.546;6.912;2024-03-17T06:08:26;2.70;99.90
13652;DHT22;6899;51.546;6.912;2024-03-17T06:10:53;2.70;99.90
13652;DHT22;6899;51.546;6.912;2024-03-17T06:13:22;2.70;99.90
13652;DHT22;6899;51.546;6.912;2024-03-17T06:15:50;2.80;99.90
13652;DHT22;6899;51.546;6.912;2024-03-17T06:18:17;2.90;99.90
13652;DHT22;6899;51.546;6.912;2024-03-17T06:20:45;3.20;99.90
13652;DHT22;6899;51.546;6.912;2024-03-17T06:23:12;3.80;99.90
13652;DHT22;6899;51.546;6.912;2024-03-17T06:25:41;4.40;99.90
13652;DHT22;6899;51.546;6.912;2024-03-17T06:28:08;4.70;99.90
13652;DHT22;6899;51.546;6.912;2024-03-17T06:30:39;4.70;99.90
13652;DHT22;6899;51.546;6.912;2024-03-17T06:33:06;4.70;99.90
13652;DHT22;6899;51.546;6.912;2024-03-17T06:35:36;4.60;99.90
13652;DHT22;6899;51.546;6.912;2024-03-17T06:38:03;4.80;99.90
13652;DHT22;6899;51.546;6.912;2024-03-17T06:40:30;5.40;99.90
13652;DHT22;6899;51.546;6.912;2024-03-17T06:42:58;6.60;99.90
13652;DHT22;6899;51.546;6.912;2024-03-17T06:45:25;7.60;99.90
13652;DHT22;6899;51.546;6.912;2024-03-17T06:47:52;8.00;99.90
13652;DHT22;6899;51.546;6.912;2024-03-17T06:50:20;8.30;99.90
13652;DHT22;6899;51.546;6.912;2024-03-17T06:52:47;8.60;99.90
13652;DHT22;6899;51.546;6.912;2024-03-17T06:55:14;8.80;99.90
13652;DHT22;6899;51.546;6.912;2024-03-17T06:57:42;8.70;99.90
13652;DHT22;6899;51.546;6.912;2024-03-17T07:00:12;8.80;99.90
13652;DHT22;6899;51.546;6.912;2024-03-17T07:02:43;8.80;99.90
13652;DHT22;6899;51.546;6.912;2024-03-17T07:05:14;8.40;99.90
13652;DHT22;6899;51.546;6.912;2024-03-17T07:07:41;8.90;99.90
13652;DHT22;6899;51.546;6.912;2024-03-17T07:10:08;9.60;99.90
13652;DHT22;6899;51.546;6.912;2024-03-17T07:12:37;9.70;99.90
13652;DHT22;6899;51.546;6.912;2024-03-17T07:15:04;9.90;99.90
13652;DHT22;6899;51.546;6.912;2024-03-17T07:17:33;10.20;99.90
13652;DHT22;6899;51.546;6.912;2024-03-17T07:19:59;10.70;99.90
13652;DHT22;6899;51.546;6.912;2024-03-17T07:22:26;11.20;99.90
13652;DHT22;6899;51.546;6.912;2024-03-17T07:24:54;11.30;99.90
13652;DHT22;6899;51.546;6.912;2024-03-17T07:27:26;11.20;99.90
13652;DHT22;6899;51.546;6.912;2024-03-17T07:29:52;10.90;99.90
13652;DHT22;6899;51.546;6.912;2024-03-17T07:32:19;10.40;99.90
13652;DHT22;6899;51.546;6.912;2024-03-17T07:34:48;10.10;99.90
13652;DHT22;6899;51.546;6.912;2024-03-17T07:37:15;9.70;99.90
13652;DHT22;6899;51.546;6.912;2024-03-17T07:39:42;9.80;99.90
13652;DHT22;6899;51.546;6.912;2024-03-17T07:42:09;9.70;99.90
13652;DHT22;6899;51.546;6.912;2024-03-17T07:44:35;9.30;99.90
13652;DHT22;6899;51.546;6.912;2024-03-17T07:47:02;9.20;99.90
13652;DHT22;6899;51.546;6.912;2024-03-17T07:49:30;9.10;99.90
13652;DHT22;6899;51.546;6.912;2024-03-17T07:51:58;9.30;99.90
13652;DHT22;6899;51.546;6.912;2024-03-17T07:54:25;9.40;99.90
13652;DHT22;6899;51.546;6.912;2024-03-17T07:56:52;9.90;99.90
13652;DHT22;6899;51.546;6.912;2024-03-17T07:59:20;10.10;99.90
13652;DHT22;6899;51.546;6.912;2024-03-17T08:01:47;10.00;99.90
13652;DHT22;6899;51.546;6.912;2024-03-17T08:04:14;10.00;99.90
13652;DHT22;6899;51.546;6.912;2024-03-17T08:06:40;10.40;99.90
13652;DHT22;6899;51.546;6.912;2024-03-17T08:09:09;10.40;99.90
13652;DHT22;6899;51.546;6.912;2024-03-17T08:11:36;10.30;99.90
13652;DHT22;6899;51.546;6.912;2024-03-17T08:14:03;10.30;99.90
13652;DHT22;6899;51.546;6.912;2024-03-17T08:16:31;10.40;99.90
13652;DHT22;6899;51.546;6.912;2024-03-17T08:18:58;10.00;99.90
13652;DHT22;6899;51.546;6.912;2024-03-17T08:21:25;10.10;99.90
13652;DHT22;6899;51.546;6.912;2024-03-17T08:23:54;10.10;99.90
13652;DHT22;6899;51.546;6.912;2024-03-17T08:26:22;10.20;99.90
13652;DHT22;6899;51.546;6.912;2024-03-17T08:28:49;10.30;99.90
13652;DHT22;6899;51.546;6.912;2024-03-17T08:31:16;10.10;99.90
13652;DHT22;6899;51.546;6.912;2024-03-17T08:33:42;9.90;99.90
13652;DHT22;6899;51.546;6.912;2024-03-17T08:36:09;9.90;99.90
13652;DHT22;6899;51.546;6.912;2024-03-17T08:38:37;9.80;99.90
13652;DHT22;6899;51.546;6.912;2024-03-17T08:41:05;9.70;99.90
13652;DHT22;6899;51.546;6.912;2024-03-17T08:43:34;10.00;99.90
13652;DHT22;6899;51.546;6.912;2024-03-17T08:46:02;9.80;99.90
13652;DHT22;6899;51.546;6.912;2024-03-17T08:48:31;9.90;99.90
13652;DHT22;6899;51.546;6.912;2024-03-17T08:50:59;10.30;99.90
13652;DHT22;6899;51.546;6.912;2024-03-17T08:53:27;10.30;99.90
13652;DHT22;6899;51.546;6.912;2024-03-17T08:55:54;10.60;99.90
13652;DHT22;6899;51.546;6.912;2024-03-17T08:58:22;10.70;99.90
13652;DHT22;6899;51.546;6.912;2024-03-17T09:00:50;10.90;99.90
13652;DHT22;6899;51.546;6.912;2024-03-17T09:03:17;11.60;99.90
13652;DHT22;6899;51.546;6.912;2024-03-17T09:05:46;12.20;99.90
13652;DHT22;6899;51.546;6.912;2024-03-17T09:08:16;12.20;99.90
13652;DHT22;6899;51.546;6.912;2024-03-17T09:10:46;12.10;99.90
13652;DHT22;6899;51.546;6.912;2024-03-17T09:13:14;12.20;99.90
13652;DHT22;6899;51.546;6.912;2024-03-17T09:15:50;12.60;99.90
13652;DHT22;6899;51.546;6.912;2024-03-17T09:18:17;12.60;99.90
13652;DHT22;6899;51.546;6.912;2024-03-17T09:20:44;12.60;99.90
13652;DHT22;6899;51.546;6.912;2024-03-17T09:23:11;12.60;99.90
13652;DHT22;6899;51.546;6.912;2024-03-17T09:25:38;12.30;99.90
13652;DHT22;6899;51.546;6.912;2024-03-17T09:28:05;12.70;99.90
13652;DHT22;6899;51.546;6.912;2024-03-17T09:30:32;12.30;99.90
13652;DHT22;6899;51.546;6.912;2024-03-17T09:33:00;12.50;99.90
13652;DHT22;6899;51.546;6.912;2024-03-17T09:35:27;12.80;99.90
13652;DHT22;6899;51.546;6.912;2024-03-17T09:37:54;13.00;99.90
13652;DHT22;6899;51.546;6.912;2024-03-17T09:40:21;13.20;99.90
13652;DHT22;6899;51.546;6.912;2024-03-17T09:42:49;13.40;99.90
13652;DHT22;6899;51.546;6.912;2024-03-17T09:45:16;13.70;99.90
13652;DHT22;6899;51.546;6.912;2024-03-17T09:47:44;13.80;99.90
13652;DHT22;6899;51.546;6.912;2024-03-17T09:50:14;14.10;99.90
13652;DHT22;6899;51.546;6.912;2024-03-17T09:52:42;14.30;99.90
13652;DHT22;6899;51.546;6.912;2024-03-17T09:55:15;14.70;99.90
13652;DHT22;6899;51.546;6.912;2024-03-17T09:57:42;14.40;99.90
13652;DHT22;6899;51.546;6.912;2024-03-17T10:00:11;14.50;99.90
13652;DHT22;6899;51.546;6.912;2024-03-17T10:02:42;14.10;99.90
13652;DHT22;6899;51.546;6.912;2024-03-17T10:05:20;14.40;99.90
13652;DHT22;6899;51.546;6.912;2024-03-17T10:07:48;14.40;99.90
13652;DHT22;6899;51.546;6.912;2024-03-17T10:10:15;14.50;99.90
13652;DHT22;6899;51.546;6.912;2024-03-17T10:12:43;14.20;99.90
13652;DHT22;6899;51.546;6.912;2024-03-17T10:15:11;14.40;99.90
13652;DHT22;6899;51.546;6.912;2024-03-17T10:17:38;14.60;99.90
13652;DHT22;6899;51.546;6.912;2024-03-17T10:20:15;14.60;99.90
13652;DHT22;6899;51.546;6.912;2024-03-17T10:23:00;15.10;99.90
13652;DHT22;6899;51.546;6.912;2024-03-17T10:25:28;14.80;99.90
13652;DHT22;6899;51.546;6.912;2024-03-17T10:27:56;15.00;99.90
13652;DHT22;6899;51.546;6.912;2024-03-17T10:30:24;15.30;99.90
13652;DHT22;6899;51.546;6.912;2024-03-17T10:32:55;15.50;99.90
13652;DHT22;6899;51.546;6.912;2024-03-17T10:35:30;15.00;99.90
13652;DHT22;6899;51.546;6.912;2024-03-17T10:38:01;15.30;99.90
13652;DHT22;6899;51.546;6.912;2024-03-17T10:40:29;15.40;99.90
13652;DHT22;6899;51.546;6.912;2024-03-17T10:42:57;15.60;99.90
13652;DHT22;6899;51.546;6.912;2024-03-17T10:45:25;15.90;99.90
13652;DHT22;6899;51.546;6.912;2024-03-17T10:47:52;16.20;99.90
13652;DHT22;6899;51.546;6.912;2024-03-17T10:50:21;16.10;99.90
13652;DHT22;6899;51.546;6.912;2024-03-17T10:52:50;15.60;99.90
13652;DHT22;6899;51.546;6.912;2024-03-17T10:55:23;15.40;99.90
13652;DHT22;6899;51.546;6.912;2024-03-17T10:57:51;15.70;99.90
13652;DHT22;6899;51.546;6.912;2024-03-17T11:00:19;15.40;99.90
13652;DHT22;6899;51.546;6.912;2024-03-17T11:02:48;15.40;99.90
13652;DHT22;6899;51.546;6.912;2024-03-17T11:05:18;15.40;99.90
13652;DHT22;6899;51.546;6.912;2024-03-17T11:07:48;15.60;99.90
13652;DHT22;6899;51.546;6.912;2024-03-17T11:10:18;15.90;99.90
13652;DHT22;6899;51.546;6.912;2024-03-17T11:12:49;15.60;99.90
13652;DHT22;6899;51.546;6.912;2024-03-17T11:15:39;15.80;99.90
13652;DHT22;6899;51.546;6.912;2024-03-17T11:21:21;16.10;99.90
13652;DHT22;6899;51.546;6.912;2024-03-17T11:23:59;16.30;99.90
13652;DHT22;6899;51.546;6.912;2024-03-17T11:26:28;16.60;99.90
13652;DHT22;6899;51.546;6.912;2024-03-17T11:28:56;16.90;99.90
13652;DHT22;6899;51.546;6.912;2024-03-17T11:31:35;17.00;98.40
13652;DHT22;6899;51.546;6.912;2024-03-17T11:34:01;17.10;98.70
13652;DHT22;6899;51.546;6.912;2024-03-17T11:36:38;17.10;99.80
13652;DHT22;6899;51.546;6.912;2024-03-17T11:39:06;16.60;98.00
13652;DHT22;6899;51.546;6.912;2024-03-17T11:41:37;16.70;99.90
13652;DHT22;6899;51.546;6.912;2024-03-17T11:44:25;16.50;97.70
13652;DHT22;6899;51.546;6.912;2024-03-17T11:46:53;16.30;97.30
13652;DHT22;6899;51.546;6.912;2024-03-17T11:49:22;16.30;96.10
13652;DHT22;6899;51.546;6.912;2024-03-17T11:51:48;17.00;99.90
13652;DHT22;6899;51.546;6.912;2024-03-17T11:54:17;16.80;97.00
13652;DHT22;6899;51.546;6.912;2024-03-17T11:56:48;16.70;96.40
13652;DHT22;6899;51.546;6.912;2024-03-17T11:59:16;16.10;96.50
13652;DHT22;6899;51.546;6.912;2024-03-17T12:01:45;16.60;97.50
13652;DHT22;6899;51.546;6.912;2024-03-17T12:04:13;16.60;97.90
13652;DHT22;6899;51.546;6.912;2024-03-17T12:06:44;16.60;96.50
13652;DHT22;6899;51.546;6.912;2024-03-17T12:09:17;17.10;95.90
13652;DHT22;6899;51.546;6.912;2024-03-17T12:11:46;17.70;95.50
13652;DHT22;6899;51.546;6.912;2024-03-17T12:14:17;17.90;96.20
13652;DHT22;6899;51.546;6.912;2024-03-17T12:16:50;18.80;94.30
13652;DHT22;6899;51.546;6.912;2024-03-17T12:19:17;18.30;94.20
13652;DHT22;6899;51.546;6.912;2024-03-17T12:21:44;18.40;94.10
13652;DHT22;6899;51.546;6.912;2024-03-17T12:24:15;18.70;93.10
13652;DHT22;6899;51.546;6.912;2024-03-17T12:26:42;18.20;92.70
13652;DHT22;6899;51.546;6.912;2024-03-17T12:29:22;18.60;92.10
13652;DHT22;6899;51.546;6.912;2024-03-17T12:31:51;18.10;90.80
13652;DHT22;6899;51.546;6.912;2024-03-17T12:34:19;17.40;92.50
13652;DHT22;6899;51.546;6.912;2024-03-17T12:36:45;16.90;93.70
13652;DHT22;6899;51.546;6.912;2024-03-17T12:39:18;17.30;94.60
13652;DHT22;6899;51.546;6.912;2024-03-17T12:41:44;17.20;92.20
13652;DHT22;6899;51.546;6.912;2024-03-17T12:44:21;17.00;92.60
13652;DHT22;6899;51.546;6.912;2024-03-17T12:46:47;17.30;92.50
13652;DHT22;6899;51.546;6.912;2024-03-17T12:49:16;16.90;91.70
13652;DHT22;6899;51.546;6.912;2024-03-17T12:51:41;17.10;93.20
13652;DHT22;6899;51.546;6.912;2024-03-17T12:54:14;17.50;94.60
13652;DHT22;6899;51.546;6.912;2024-03-17T12:56:40;18.30;92.00
13652;DHT22;6899;51.546;6.912;2024-03-17T12:59:24;18.00;91.20
13652;DHT22;6899;51.546;6.912;2024-03-17T13:02:11;17.90;91.10
13652;DHT22;6899;51.546;6.912;2024-03-17T13:04:40;17.70;93.50
13652;DHT22;6899;51.546;6.912;2024-03-17T13:07:10;17.90;91.70
13652;DHT22;6899;51.546;6.912;2024-03-17T13:09:36;17.50;92.70
13652;DHT22;6899;51.546;6.912;2024-03-17T13:12:13;17.40;92.90
13652;DHT22;6899;51.546;6.912;2024-03-17T13:14:40;16.70;93.20
13652;DHT22;6899;51.546;6.912;2024-03-17T13:17:14;16.60;92.80
13652;DHT22;6899;51.546;6.912;2024-03-17T13:19:45;17.10;93.30
13652;DHT22;6899;51.546;6.912;2024-03-17T13:22:12;17.30;92.70
13652;DHT22;6899;51.546;6.912;2024-03-17T13:24:39;17.60;92.70
13652;DHT22;6899;51.546;6.912;2024-03-17T13:27:07;17.30;90.30
13652;DHT22;6899;51.546;6.912;2024-03-17T13:29:34;17.20;91.00
13652;DHT22;6899;51.546;6.912;2024-03-17T13:32:03;16.40;90.90
13652;DHT22;6899;51.546;6.912;2024-03-17T13:34:30;16.40;92.20
13652;DHT22;6899;51.546;6.912;2024-03-17T13:36:58;16.40;93.50
13652;DHT22;6899;51.546;6.912;2024-03-17T13:39:29;15.90;92.20
13652;DHT22;6899;51.546;6.912;2024-03-17T13:41:57;15.90;93.60
13652;DHT22;6899;51.546;6.912;2024-03-17T13:44:28;16.00;93.00
13652;DHT22;6899;51.546;6.912;2024-03-17T13:46:55;16.10;94.00
13652;DHT22;6899;51.546;6.912;2024-03-17T13:49:21;16.00;95.00
13652;DHT22;6899;51.546;6.912;2024-03-17T13:51:49;16.20;94.30
13652;DHT22;6899;51.546;6.912;2024-03-17T13:54:17;16.40;94.30
13652;DHT22;6899;51.546;6.912;2024-03-17T13:56:46;16.30;94.10
13652;DHT22;6899;51.546;6.912;2024-03-17T13:59:13;16.50;93.20
13652;DHT22;6899;51.546;6.912;2024-03-17T14:01:40;16.30;93.20
13652;DHT22;6899;51.546;6.912;2024-03-17T14:04:13;16.00;92.10
13652;DHT22;6899;51.546;6.912;2024-03-17T14:06:40;15.90;94.20
13652;DHT22;6899;51.546;6.912;2024-03-17T14:09:07;15.70;93.70
13652;DHT22;6899;51.546;6.912;2024-03-17T14:11:37;15.50;94.40
13652;DHT22;6899;51.546;6.912;2024-03-17T14:14:04;15.40;93.00
13652;DHT22;6899;51.546;6.912;2024-03-17T14:16:31;15.40;93.40
13652;DHT22;6899;51.546;6.912;2024-03-17T14:18:59;15.40;96.10
13652;DHT22;6899;51.546;6.912;2024-03-17T14:21:26;15.50;95.60
13652;DHT22;6899;51.546;6.912;2024-03-17T14:23:53;15.30;93.20
13652;DHT22;6899;51.546;6.912;2024-03-17T14:26:20;15.10;94.20
13652;DHT22;6899;51.546;6.912;2024-03-17T14:28:48;15.20;95.30
13652;DHT22;6899;51.546;6.912;2024-03-17T14:31:17;15.20;96.70
13652;DHT22;6899;51.546;6.912;2024-03-17T14:33:44;15.40;96.10
13652;DHT22;6899;51.546;6.912;2024-03-17T14:36:10;15.80;97.20
13652;DHT22;6899;51.546;6.912;2024-03-17T14:38:37;15.90;96.40
13652;DHT22;6899;51.546;6.912;2024-03-17T14:41:04;16.20;95.90
13652;DHT22;6899;51.546;6.912;2024-03-17T14:43:31;16.20;94.80
13652;DHT22;6899;51.546;6.912;2024-03-17T14:45:59;16.30;94.40
13652;DHT22;6899;51.546;6.912;2024-03-17T14:48:26;16.00;93.70
13652;DHT22;6899;51.546;6.912;2024-03-17T14:50:53;16.10;95.20
13652;DHT22;6899;51.546;6.912;2024-03-17T14:53:20;15.90;95.20
13652;DHT22;6899;51.546;6.912;2024-03-17T14:55:46;15.50;95.40
13652;DHT22;6899;51.546;6.912;2024-03-17T14:58:13;15.20;96.60
13652;DHT22;6899;51.546;6.912;2024-03-17T15:00:41;15.10;96.20
13652;DHT22;6899;51.546;6.912;2024-03-17T15:03:09;15.10;97.10
13652;DHT22;6899;51.546;6.912;2024-03-17T15:05:35;15.00;99.00
13652;DHT22;6899;51.546;6.912;2024-03-17T15:08:02;14.90;97.10
13652;DHT22;6899;51.546;6.912;2024-03-17T15:10:29;14.80;98.00
13652;DHT22;6899;51.546;6.912;2024-03-17T15:12:56;14.70;98.10
13652;DHT22;6899;51.546;6.912;2024-03-17T15:15:23;14.60;98.20
13652;DHT22;6899;51.546;6.912;2024-03-17T15:17:49;14.60;98.20
13652;DHT22;6899;51.546;6.912;2024-03-17T15:20:18;14.70;98.30
13652;DHT22;6899;51.546;6.912;2024-03-17T15:22:48;14.80;97.50
13652;DHT22;6899;51.546;6.912;2024-03-17T15:25:16;14.90;98.00
13652;DHT22;6899;51.546;6.912;2024-03-17T15:27:43;15.00;98.40
13652;DHT22;6899;51.546;6.912;2024-03-17T15:30:12;15.20;98.10
13652;DHT22;6899;51.546;6.912;2024-03-17T15:32:40;15.30;98.00
13652;DHT22;6899;51.546;6.912;2024-03-17T15:35:10;15.30;96.30
13652;DHT22;6899;51.546;6.912;2024-03-17T15:37:40;15.40;96.10
13652;DHT22;6899;51.546;6.912;2024-03-17T15:40:07;15.50;95.10
13652;DHT22;6899;51.546;6.912;2024-03-17T15:42:39;15.50;96.10
13652;DHT22;6899;51.546;6.912;2024-03-17T15:45:06;15.60;96.00
13652;DHT22;6899;51.546;6.912;2024-03-17T15:47:33;16.00;95.90
13652;DHT22;6899;51.546;6.912;2024-03-17T15:50:00;15.90;94.80
13652;DHT22;6899;51.546;6.912;2024-03-17T15:52:27;16.20;94.90
13652;DHT22;6899;51.546;6.912;2024-03-17T15:54:56;16.00;93.70
13652;DHT22;6899;51.546;6.912;2024-03-17T15:57:24;15.80;93.20
13652;DHT22;6899;51.546;6.912;2024-03-17T15:59:51;16.00;94.40
13652;DHT22;6899;51.546;6.912;2024-03-17T16:02:19;16.00;92.80
13652;DHT22;6899;51.546;6.912;2024-03-17T16:04:47;15.80;92.80